East Ryegate, Vermont
Current Conditions -  °F | °C
As of 8:51 PM on Friday 31 Oct 2014 (Local Time) from KMPV Reporting Station
Overcast Overcast  
Wind Chill: 39°   Ceiling: 5000
Heat Index: 42°   Visibility: 10mi
Dew Point: 29°   Wind: 5mph
Humidity: 60%   Direction: 10°N
Pressure: 30.05"   Gusts: NA
Location:  44.2°N, 72.06°W
Report Text: KMPV 010051Z AUTO 01004KT 10SM OVC050 06/M02 A3005 RMK AO2 SLP187 T00561017
Loading
Personal Weather Stations






























Interactive Weather Map
Tropical Storm Tracking
New forecast layout! Learn more

10-Day Weather Forecast

Advertisements
Track Severe Weather on mobile